createdAt,value
2019-04-04T00:02:08.717Z,35.40
2019-04-04T00:05:12.606Z,33.97
2019-04-04T00:08:16.457Z,36.90
2019-04-04T00:11:20.296Z,36.33
2019-04-04T00:14:24.091Z,36.03
2019-04-04T00:17:27.885Z,36.07
2019-04-04T00:20:32.316Z,35.73
2019-04-04T00:23:38.038Z,36.43
2019-04-04T00:26:42.628Z,36.43
2019-04-04T00:29:47.992Z,36.43
2019-04-04T00:32:52.786Z,36.00
2019-04-04T00:35:57.253Z,36.00
2019-04-04T00:39:01.084Z,37.27
2019-04-04T00:42:04.972Z,36.73
2019-04-04T00:45:08.929Z,36.80
2019-04-04T00:48:12.779Z,37.70
2019-04-04T00:51:16.602Z,37.53
2019-04-04T00:54:20.424Z,37.17
2019-04-04T00:57:24.252Z,35.60
2019-04-04T01:00:28.116Z,33.90
2019-04-04T01:03:31.927Z,34.10
2019-04-04T01:06:35.755Z,34.50
2019-04-04T01:09:39.607Z,33.17
2019-04-04T01:12:43.441Z,33.30
2019-04-04T01:15:47.323Z,38.80
2019-04-04T01:18:51.132Z,39.00
2019-04-04T01:21:54.944Z,40.73
2019-04-04T01:24:59.024Z,40.00
2019-04-04T01:28:04.390Z,41.47
2019-04-04T01:31:08.223Z,45.03
2019-04-04T01:34:12.033Z,45.47
2019-04-04T01:37:15.894Z,44.93
2019-04-04T01:40:19.880Z,45.70
2019-04-04T01:43:23.690Z,43.73
2019-04-04T01:46:27.488Z,44.50
2019-04-04T01:49:31.290Z,45.10
2019-04-04T01:52:35.109Z,44.37
2019-04-04T01:55:38.919Z,45.37
2019-04-04T01:58:42.712Z,45.00
2019-04-04T02:01:46.840Z,41.73
2019-04-04T02:04:51.301Z,45.10
2019-04-04T02:07:55.107Z,44.20
2019-04-04T02:10:58.909Z,44.40
2019-04-04T02:14:02.733Z,45.43
2019-04-04T02:17:06.606Z,48.10
2019-04-04T02:20:10.573Z,45.57
2019-04-04T02:23:14.385Z,47.10
2019-04-04T02:26:18.185Z,49.30
2019-04-04T02:29:22.025Z,48.70
2019-04-04T02:32:27.519Z,49.37
2019-04-04T02:35:31.487Z,46.97
2019-04-04T02:38:35.269Z,48.47
2019-04-04T02:41:39.082Z,46.00
2019-04-04T02:44:42.961Z,46.80
2019-04-04T02:47:50.313Z,48.00
2019-04-04T02:50:52.280Z,44.77
2019-04-04T02:53:56.085Z,48.50
2019-04-04T02:56:59.935Z,48.17
2019-04-04T03:00:04.413Z,48.53
2019-04-04T03:03:09.325Z,52.20
2019-04-04T03:06:13.465Z,49.93
2019-04-04T03:09:17.337Z,49.57
2019-04-04T03:12:21.326Z,51.07
2019-04-04T03:15:25.223Z,52.00
2019-04-04T03:18:29.096Z,50.43
2019-04-04T03:21:32.963Z,52.60
2019-04-04T03:24:40.282Z,55.30
2019-04-04T03:27:42.373Z,50.80
2019-04-04T03:30:52.426Z,54.00
2019-04-04T03:33:51.803Z,51.57
2019-04-04T03:36:55.678Z,50.90
2019-04-04T03:39:59.529Z,51.07
2019-04-04T03:43:03.317Z,46.90
2019-04-04T03:46:07.143Z,48.07
2019-04-04T03:49:10.915Z,47.77
2019-04-04T03:52:14.734Z,47.27
2019-04-04T03:55:18.588Z,45.70
2019-04-04T03:58:27.043Z,48.17
2019-04-04T04:01:27.988Z,46.23
2019-04-04T04:04:31.826Z,48.27
2019-04-04T04:07:35.626Z,43.07
2019-04-04T04:10:39.416Z,44.20
2019-04-04T04:13:43.220Z,48.60
2019-04-04T04:16:47.028Z,46.50
2019-04-04T04:19:50.833Z,47.13
2019-04-04T04:22:54.701Z,44.63
2019-04-04T04:25:58.568Z,43.27
2019-04-04T04:29:02.485Z,43.83
2019-04-04T04:32:06.386Z,44.80
2019-04-04T04:35:10.429Z,43.17
2019-04-04T04:38:14.211Z,43.63
2019-04-04T04:41:20.423Z,44.33
2019-04-04T04:44:23.581Z,42.53
2019-04-04T04:47:27.457Z,42.20
2019-04-04T04:50:31.243Z,45.40
2019-04-04T04:53:35.063Z,46.40
2019-04-04T04:56:38.869Z,46.57
2019-04-04T04:59:44.299Z,49.33
2019-04-04T05:02:48.529Z,50.73
2019-04-04T05:05:52.409Z,52.27
2019-04-04T05:08:56.226Z,47.13
2019-04-04T05:12:00.124Z,48.77
2019-04-04T05:15:04.269Z,49.53
2019-04-04T05:18:08.064Z,46.87
2019-04-04T05:21:24.134Z,47.40
2019-04-04T05:24:18.105Z,46.23
2019-04-04T05:27:22.617Z,44.87
2019-04-04T05:30:26.433Z,47.70
2019-04-04T05:33:31.667Z,49.23
2019-04-04T05:36:36.784Z,50.73
2019-04-04T05:39:40.927Z,46.00
2019-04-04T05:42:45.698Z,47.60
2019-04-04T05:45:49.474Z,44.33
2019-04-04T05:48:53.364Z,45.40
2019-04-04T05:51:57.165Z,46.07
2019-04-04T05:55:00.997Z,47.53
2019-04-04T05:58:04.883Z,48.97
2019-04-04T06:01:10.254Z,49.00
2019-04-04T06:04:14.355Z,49.60
2019-04-04T06:07:18.224Z,44.87
2019-04-04T06:10:22.005Z,41.93
2019-04-04T06:13:27.049Z,43.30
2019-04-04T06:16:33.050Z,46.13
2019-04-04T06:19:36.920Z,45.33
2019-04-04T06:22:40.708Z,45.67
2019-04-04T06:25:44.549Z,47.80
2019-04-04T06:28:48.437Z,47.03
2019-04-04T06:31:52.273Z,46.97
2019-04-04T06:34:56.779Z,46.03
2019-04-04T06:38:00.723Z,48.73
2019-04-04T06:41:04.653Z,44.83
2019-04-04T06:44:08.528Z,48.17
2019-04-04T06:47:12.344Z,48.40
2019-04-04T06:50:16.328Z,44.30
2019-04-04T06:53:20.389Z,41.20
2019-04-04T06:56:25.644Z,42.07
2019-04-04T06:59:29.530Z,38.43
2019-04-04T07:02:33.364Z,36.60
2019-04-04T07:05:38.831Z,40.10
2019-04-04T07:08:42.916Z,35.17
2019-04-04T07:11:46.811Z,37.33
2019-04-04T07:14:50.720Z,36.30
2019-04-04T07:17:54.545Z,38.50
2019-04-04T07:20:58.403Z,37.53
2019-04-04T07:24:02.237Z,33.70
2019-04-04T07:27:06.236Z,34.23
2019-04-04T07:30:10.491Z,34.90
2019-04-04T07:33:14.287Z,34.37
2019-04-04T07:36:20.180Z,31.67
2019-04-04T07:39:23.630Z,29.93
2019-04-04T07:42:27.531Z,26.97
2019-04-04T07:45:31.429Z,28.47
2019-04-04T07:48:35.382Z,26.67
2019-04-04T07:51:39.164Z,28.63
2019-04-04T07:54:42.962Z,24.53
2019-04-04T07:57:46.767Z,25.77
2019-04-04T08:00:50.559Z,23.20
2019-04-04T08:03:54.403Z,21.20
2019-04-04T08:06:58.213Z,19.40
2019-04-04T08:10:02.014Z,19.77
2019-04-04T08:13:05.946Z,17.53
2019-04-04T08:16:09.822Z,18.17
2019-04-04T08:19:13.594Z,18.20
2019-04-04T08:22:17.482Z,16.73
2019-04-04T08:25:21.378Z,16.93
2019-04-04T08:28:25.200Z,16.20
2019-04-04T08:31:29.020Z,16.10
2019-04-04T08:34:32.921Z,15.07
2019-04-04T08:37:36.735Z,14.33
2019-04-04T08:40:40.556Z,14.03
2019-04-04T08:43:44.341Z,15.43
2019-04-04T08:46:48.151Z,14.07
2019-04-04T08:49:51.953Z,12.90
2019-04-04T08:52:55.845Z,12.50
2019-04-04T08:55:59.713Z,14.47
2019-04-04T08:59:03.604Z,14.10
2019-04-04T09:02:07.538Z,14.77
2019-04-04T09:05:12.631Z,14.63
2019-04-04T09:08:16.620Z,15.77
2019-04-04T09:11:20.761Z,16.47
2019-04-04T09:14:24.735Z,16.97
2019-04-04T09:17:28.536Z,16.37
2019-04-04T09:20:32.383Z,18.00
2019-04-04T09:23:36.248Z,17.90
2019-04-04T09:26:40.127Z,16.10
2019-04-04T09:29:43.940Z,16.30
2019-04-04T09:32:47.752Z,14.70
2019-04-04T09:35:51.634Z,16.17
2019-04-04T09:38:55.436Z,16.17
2019-04-04T09:41:59.258Z,16.80
2019-04-04T09:45:03.156Z,17.10
2019-04-04T09:48:07.129Z,16.97
2019-04-04T09:51:11.009Z,17.17
2019-04-04T09:54:14.903Z,17.60
2019-04-04T09:57:18.711Z,17.70
2019-04-04T10:00:24.534Z,18.33
2019-04-04T10:03:28.425Z,18.00
2019-04-04T10:06:32.238Z,17.03
2019-04-04T10:09:36.063Z,18.00
2019-04-04T10:12:39.876Z,17.30
2019-04-04T10:15:44.125Z,17.70
2019-04-04T10:18:47.931Z,18.60
2019-04-04T10:21:51.753Z,18.63
2019-04-04T10:24:55.566Z,18.53
2019-04-04T10:27:59.364Z,18.20
2019-04-04T10:31:03.254Z,18.30
2019-04-04T10:34:07.224Z,19.67
2019-04-04T10:37:11.155Z,18.00
2019-04-04T10:40:15.688Z,19.20
2019-04-04T10:43:19.505Z,18.13
2019-04-04T10:46:23.377Z,20.47
2019-04-04T10:49:27.184Z,20.60
2019-04-04T10:52:30.995Z,20.83
2019-04-04T10:55:34.803Z,22.47
2019-04-04T10:58:38.690Z,20.03
2019-04-04T11:01:42.524Z,22.60
2019-04-04T11:04:46.355Z,23.00
2019-04-04T11:07:50.151Z,24.63
2019-04-04T11:10:53.976Z,25.00
2019-04-04T11:13:57.884Z,25.40
2019-04-04T11:17:01.695Z,25.57
2019-04-04T11:20:06.124Z,25.77
2019-04-04T11:23:09.995Z,26.30
2019-04-04T11:26:13.881Z,26.63
2019-04-04T11:29:17.761Z,26.20
2019-04-04T11:32:21.659Z,29.00
2019-04-04T11:35:25.481Z,28.37
2019-04-04T11:38:29.309Z,29.43
2019-04-04T11:41:33.129Z,28.77
2019-04-04T11:44:36.933Z,29.33
2019-04-04T11:47:40.728Z,28.30
2019-04-04T11:50:44.665Z,27.83
2019-04-04T11:53:48.478Z,28.70
2019-04-04T11:56:52.277Z,29.97
2019-04-04T11:59:56.167Z,28.20
2019-04-04T12:03:00.062Z,30.97
2019-04-04T12:06:04.001Z,30.80
2019-04-04T12:09:08.855Z,29.63
2019-04-04T12:12:12.672Z,33.83
2019-04-04T12:15:16.632Z,37.33
2019-04-04T12:18:20.501Z,38.70
2019-04-04T12:21:24.300Z,40.17
2019-04-04T12:24:28.084Z,38.67
2019-04-04T12:27:31.915Z,37.37
2019-04-04T12:30:35.876Z,42.73
2019-04-04T12:33:39.686Z,44.97
2019-04-04T12:36:43.502Z,45.23
2019-04-04T12:39:47.318Z,44.60
2019-04-04T12:42:51.220Z,45.57
2019-04-04T12:45:55.123Z,44.13
2019-04-04T12:48:58.928Z,43.83
2019-04-04T12:52:02.742Z,46.53
2019-04-04T12:55:07.604Z,43.80
2019-04-04T12:58:11.492Z,44.60
2019-04-04T13:01:15.309Z,42.87
2019-04-04T13:04:30.697Z,45.80
2019-04-04T13:07:24.838Z,45.97
2019-04-04T13:10:33.162Z,46.17
2019-04-04T13:13:34.311Z,41.97
2019-04-04T13:16:38.117Z,43.90
2019-04-04T13:19:42.042Z,43.17
2019-04-04T13:22:46.023Z,43.53
2019-04-04T13:25:49.831Z,42.13
2019-04-04T13:28:53.641Z,45.07
2019-04-04T13:31:57.478Z,42.17
2019-04-04T13:35:04.919Z,40.60
2019-04-04T13:38:06.915Z,37.93
2019-04-04T13:41:21.278Z,37.73
2019-04-04T13:44:16.269Z,36.83
2019-04-04T13:47:20.064Z,35.83
2019-04-04T13:50:23.869Z,34.90
2019-04-04T13:53:27.678Z,34.60
2019-04-04T13:56:31.501Z,34.83
2019-04-04T13:59:35.349Z,33.33
2019-04-04T14:02:39.215Z,32.93
2019-04-04T14:05:43.039Z,31.37
2019-04-04T14:08:46.853Z,28.40
2019-04-04T14:11:50.685Z,28.20
2019-04-04T14:14:54.475Z,28.43
2019-04-04T14:17:58.374Z,27.30
2019-04-04T14:21:04.300Z,27.07
2019-04-04T14:24:13.781Z,27.10
2019-04-04T14:27:13.560Z,26.33
2019-04-04T14:30:18.231Z,26.93
2019-04-04T14:33:22.077Z,27.50
2019-04-04T14:36:26.005Z,28.07
2019-04-04T14:39:29.844Z,26.97
2019-04-04T14:42:33.639Z,27.33
2019-04-04T14:45:37.465Z,27.47
2019-04-04T14:48:42.950Z,27.80
2019-04-04T14:51:46.891Z,31.00
2019-04-04T14:54:50.714Z,29.63
2019-04-04T14:57:54.694Z,27.67
2019-04-04T15:00:58.599Z,28.47
2019-04-04T15:04:02.418Z,27.13
2019-04-04T15:07:06.303Z,26.10
2019-04-04T15:10:10.314Z,26.30
2019-04-04T15:13:14.151Z,27.50
2019-04-04T15:16:18.727Z,26.67
2019-04-04T15:19:22.635Z,26.60
2019-04-04T15:22:26.484Z,25.60
2019-04-04T15:25:30.391Z,26.77
2019-04-04T15:28:34.267Z,26.93
2019-04-04T15:31:38.150Z,25.80
2019-04-04T15:34:41.954Z,26.30
2019-04-04T15:37:45.777Z,24.77
2019-04-04T15:40:49.567Z,25.40
2019-04-04T15:43:53.452Z,26.47
2019-04-04T15:46:57.300Z,25.17
2019-04-04T15:50:01.084Z,25.93
2019-04-04T15:53:04.995Z,27.40
2019-04-04T15:56:08.829Z,27.30
2019-04-04T15:59:12.650Z,26.40
2019-04-04T16:02:16.654Z,25.43
2019-04-04T16:05:20.480Z,26.30
2019-04-04T16:08:24.324Z,27.10
2019-04-04T16:11:28.619Z,26.90
2019-04-04T16:14:32.459Z,28.93
2019-04-04T16:17:36.281Z,28.73
2019-04-04T16:20:40.257Z,28.83
2019-04-04T16:23:44.075Z,27.70
2019-04-04T16:26:47.894Z,27.77
2019-04-04T16:29:51.718Z,26.97
2019-04-04T16:32:55.519Z,28.07
2019-04-04T16:35:59.316Z,29.60
2019-04-04T16:39:03.266Z,27.57
2019-04-04T16:42:07.085Z,27.30
2019-04-04T16:45:11.049Z,29.90
2019-04-04T16:48:14.921Z,32.03
2019-04-04T16:51:18.727Z,31.47
2019-04-04T16:54:22.533Z,33.17
2019-04-04T16:57:27.073Z,29.37
2019-04-04T17:00:31.064Z,29.53
2019-04-04T17:03:34.963Z,30.07
2019-04-04T17:06:38.784Z,32.37
2019-04-04T17:09:42.725Z,29.97
2019-04-04T17:12:46.624Z,30.17
2019-04-04T17:15:50.441Z,30.23
2019-04-04T17:18:54.250Z,30.03
2019-04-04T17:21:58.073Z,31.33
2019-04-04T17:25:01.898Z,30.93
2019-04-04T17:28:05.897Z,29.83
2019-04-04T17:31:10.288Z,29.97
2019-04-04T17:34:14.736Z,29.67
2019-04-04T17:37:18.918Z,28.77
2019-04-04T17:40:23.125Z,31.47
2019-04-04T17:43:27.528Z,31.37
2019-04-04T17:46:31.492Z,31.53
2019-04-04T17:49:35.372Z,30.80
2019-04-04T17:52:39.280Z,32.20
2019-04-04T17:55:43.073Z,31.17
2019-04-04T17:58:46.959Z,32.33
2019-04-04T18:01:50.769Z,34.20
2019-04-04T18:04:54.678Z,33.20
2019-04-04T18:07:58.603Z,31.93
2019-04-04T18:11:02.431Z,31.60
2019-04-04T18:14:06.539Z,32.80
2019-04-04T18:17:10.363Z,31.30
2019-04-04T18:20:14.965Z,32.17
2019-04-04T18:23:18.868Z,30.43
2019-04-04T18:26:22.751Z,32.90
2019-04-04T18:29:26.602Z,34.40
2019-04-04T18:32:30.421Z,35.27
2019-04-04T18:35:34.690Z,33.10
2019-04-04T18:38:38.959Z,34.07
2019-04-04T18:41:42.986Z,33.53
2019-04-04T18:44:46.800Z,33.07
2019-04-04T18:47:50.753Z,34.00
2019-04-04T18:50:54.639Z,33.40
2019-04-04T18:53:58.465Z,34.73
2019-04-04T18:57:02.375Z,34.10
2019-04-04T19:00:08.225Z,33.97
2019-04-04T19:03:12.122Z,35.63
2019-04-04T19:06:16.036Z,33.90
2019-04-04T19:09:19.931Z,34.17
2019-04-04T19:12:23.747Z,33.87
2019-04-04T19:15:27.677Z,33.47
2019-04-04T19:18:31.556Z,33.20
2019-04-04T19:21:35.456Z,34.53
2019-04-04T19:24:39.354Z,32.83
2019-04-04T19:27:43.196Z,33.73
2019-04-04T19:30:47.185Z,32.10
2019-04-04T19:33:51.079Z,33.37
2019-04-04T19:36:55.000Z,33.60
2019-04-04T19:39:58.839Z,36.43
2019-04-04T19:43:02.755Z,37.33
2019-04-04T19:46:06.723Z,37.57
2019-04-04T19:49:10.594Z,86.57
2019-04-04T19:52:14.557Z,67.17
2019-04-04T19:55:18.552Z,76.83
2019-04-04T19:58:22.364Z,69.83
2019-04-04T20:01:26.174Z,40.67
2019-04-04T20:04:30.007Z,36.23
2019-04-04T20:07:33.813Z,37.20
2019-04-04T20:10:37.638Z,36.13
2019-04-04T20:13:41.451Z,36.07
2019-04-04T20:16:45.286Z,38.17
2019-04-04T20:19:49.186Z,39.90
2019-04-04T20:22:53.053Z,37.20
2019-04-04T20:25:56.861Z,37.40
2019-04-04T20:29:00.699Z,36.00
2019-04-04T20:32:04.607Z,38.73
2019-04-04T20:35:08.682Z,40.47
2019-04-04T20:38:12.500Z,40.50
2019-04-04T20:41:16.743Z,41.43
2019-04-04T20:44:20.724Z,39.43
2019-04-04T20:47:24.528Z,39.27
2019-04-04T20:50:28.441Z,41.13
2019-04-04T20:53:32.334Z,40.77
2019-04-04T20:56:36.243Z,44.03
2019-04-04T20:59:40.104Z,42.30
2019-04-04T21:02:44.059Z,40.53
2019-04-04T21:05:48.537Z,41.63
2019-04-04T21:08:52.722Z,40.10
2019-04-04T21:11:57.112Z,39.37
2019-04-04T21:15:01.124Z,38.80
2019-04-04T21:18:05.148Z,39.67
2019-04-04T21:21:09.185Z,40.77
2019-04-04T21:24:13.066Z,38.27
2019-04-04T21:27:18.817Z,38.93
2019-04-04T21:30:22.655Z,38.57
2019-04-04T21:33:26.609Z,37.43
2019-04-04T21:36:30.381Z,38.37
2019-04-04T21:39:34.191Z,37.27
2019-04-04T21:42:38.049Z,38.97
2019-04-04T21:45:41.939Z,36.57
2019-04-04T21:48:45.775Z,36.20
2019-04-04T21:51:49.603Z,37.60
2019-04-04T21:54:53.419Z,36.60
2019-04-04T21:57:57.280Z,36.37
2019-04-04T22:01:01.517Z,37.37
2019-04-04T22:04:05.881Z,35.43
2019-04-04T22:07:10.165Z,35.37
2019-04-04T22:10:14.402Z,34.30
2019-04-04T22:13:18.432Z,33.80
2019-04-04T22:16:22.551Z,33.67
2019-04-04T22:19:26.744Z,33.93
2019-04-04T22:22:30.650Z,32.57
2019-04-04T22:25:34.946Z,32.33
2019-04-04T22:28:38.804Z,32.67
2019-04-04T22:31:42.701Z,32.33
2019-04-04T22:34:46.818Z,31.37
2019-04-04T22:37:51.064Z,33.57
2019-04-04T22:40:55.086Z,31.43
2019-04-04T22:44:03.725Z,33.03
2019-04-04T22:47:04.987Z,33.77
2019-04-04T22:50:09.444Z,34.20
2019-04-04T22:53:13.763Z,32.77
2019-04-04T22:56:17.593Z,32.83
2019-04-04T22:59:21.666Z,32.17
2019-04-04T23:02:25.647Z,32.17
2019-04-04T23:05:29.880Z,31.80
2019-04-04T23:08:34.581Z,32.87
2019-04-04T23:11:38.492Z,36.03
2019-04-04T23:14:48.398Z,36.70
2019-04-04T23:17:47.895Z,36.43
2019-04-04T23:20:51.736Z,33.43
2019-04-04T23:23:55.554Z,34.17
2019-04-04T23:26:59.380Z,34.23
2019-04-04T23:30:03.284Z,34.80
2019-04-04T23:33:07.171Z,33.63
2019-04-04T23:36:11.028Z,34.23
2019-04-04T23:39:15.039Z,35.57
2019-04-04T23:42:18.883Z,33.70
2019-04-04T23:45:22.734Z,33.67
2019-04-04T23:48:26.555Z,34.83
2019-04-04T23:51:30.550Z,36.10
2019-04-04T23:54:34.440Z,35.83
2019-04-04T23:57:38.343Z,36.13
